Time;durP1;ratioP1;P1;durP2;ratioP2;P2;SDS_P1;SDS_P2;PMS_P1;PMS_P2;Temp;Humidity;BMP_temperature;BMP_pressure;BME280_temperature;BME280_humidity;BME280_pressure;Samples;Min_cycle;Max_cycle;Signal;HPM_P1;HPM_P2
2020/12/17 00:01:21;;;;;;;48.33;32.67;;;;;;;8.55;80.18;101325.06;5037073;28;20186;-74
2020/12/17 00:03:46;;;;;;;49.10;33.37;;;;;;;8.46;80.46;101312.72;5036976;28;20252;-74
2020/12/17 00:06:12;;;;;;;49.10;33.17;;;;;;;8.40;80.26;101308.19;5037413;28;20179;-73
2020/12/17 00:08:37;;;;;;;50.87;34.70;;;;;;;8.19;81.12;101305.00;5037002;28;20181;-73
2020/12/17 00:11:02;;;;;;;49.60;34.43;;;;;;;8.40;80.59;101304.69;5037350;28;20277;-74
2020/12/17 00:13:28;;;;;;;47.90;32.53;;;;;;;7.96;81.82;101292.22;5039100;28;20194;-73
2020/12/17 00:15:54;;;;;;;52.80;33.50;;;;;;;8.26;81.12;101293.94;5037234;28;20265;-70
2020/12/17 00:18:19;;;;;;;45.07;31.83;;;;;;;8.19;80.57;101285.09;5037010;28;20173;-75
2020/12/17 00:20:44;;;;;;;45.70;31.20;;;;;;;7.98;82.16;101285.34;5037546;28;20197;-76
2020/12/17 00:23:09;;;;;;;45.73;31.73;;;;;;;8.27;80.86;101278.38;5037035;28;20197;-75
2020/12/17 00:25:35;;;;;;;46.63;32.90;;;;;;;8.10;81.91;101277.03;5036712;28;20323;-76
2020/12/17 00:28:00;;;;;;;47.10;33.00;;;;;;;8.10;81.05;101279.63;5036962;28;20174;-73
2020/12/17 00:30:26;;;;;;;46.27;33.20;;;;;;;8.13;81.30;101274.50;5036748;28;20205;-74
2020/12/17 00:32:51;;;;;;;47.40;33.90;;;;;;;8.15;80.72;101277.19;5036765;28;20178;-72
2020/12/17 00:35:17;;;;;;;47.20;32.30;;;;;;;8.36;80.33;101282.97;5037092;28;20212;-73
2020/12/17 00:37:42;;;;;;;46.50;32.77;;;;;;;8.39;79.71;101282.19;5036636;28;20188;-73
2020/12/17 00:40:11;;;;;;;47.93;33.03;;;;;;;8.55;78.91;101281.78;5036465;28;20236;-74
2020/12/17 00:42:42;;;;;;;45.67;30.57;;;;;;;8.29;80.58;101290.53;5036774;28;20182;-74
2020/12/17 00:45:08;;;;;;;54.73;31.80;;;;;;;8.51;79.25;101279.94;5036230;28;20417;-74
2020/12/17 00:47:33;;;;;;;50.13;33.30;;;;;;;8.25;80.78;101276.56;5036599;28;20478;-74
2020/12/17 00:49:59;;;;;;;44.47;31.50;;;;;;;8.25;80.19;101282.66;5036736;28;20166;-73
2020/12/17 00:52:24;;;;;;;45.70;31.70;;;;;;;8.63;79.01;101270.69;5033517;28;20205;-74
2020/12/17 00:54:50;;;;;;;44.20;30.90;;;;;;;8.27;80.16;101272.31;5026052;28;20455;-72
2020/12/17 00:57:15;;;;;;;46.87;31.23;;;;;;;7.98;80.74;101258.50;5023948;28;20181;-73
2020/12/17 00:59:41;;;;;;;44.03;31.57;;;;;;;8.42;79.57;101257.13;5035428;28;20507;-73
2020/12/17 01:02:07;;;;;;;45.27;31.63;;;;;;;8.45;79.35;101255.47;5022932;28;20186;-69
2020/12/17 01:04:32;;;;;;;47.07;31.90;;;;;;;8.40;79.34;101251.03;5016217;28;20206;-69
2020/12/17 01:06:58;;;;;;;44.07;30.70;;;;;;;8.19;79.87;101253.91;5015541;28;20175;-70
2020/12/17 01:09:23;;;;;;;42.23;29.90;;;;;;;8.28;79.93;101250.72;5018080;28;20178;-69
2020/12/17 01:11:49;;;;;;;48.00;31.13;;;;;;;8.45;79.03;101237.28;5035880;28;20180;-69
2020/12/17 01:14:14;;;;;;;43.13;31.67;;;;;;;8.26;79.62;101248.03;5035500;28;20178;-69
2020/12/17 01:16:40;;;;;;;44.33;28.60;;;;;;;7.93;80.67;101238.50;5036570;28;20256;-71
2020/12/17 01:19:05;;;;;;;42.43;29.10;;;;;;;8.54;82.92;101238.44;5028593;28;20210;-74
2020/12/17 01:21:31;;;;;;;24.07;18.20;;;;;;;12.43;75.57;101231.53;5019442;28;20261;-81
2020/12/17 01:23:56;;;;;;;36.50;28.23;;;;;;;9.82;72.46;101244.84;5018801;28;20338;-74
2020/12/17 01:26:22;;;;;;;33.40;26.00;;;;;;;8.75;76.53;101261.50;5019554;28;20261;-73
2020/12/17 01:28:47;;;;;;;37.77;26.73;;;;;;;8.77;76.99;101256.34;5019107;28;20171;-73
2020/12/17 01:31:13;;;;;;;38.33;28.10;;;;;;;8.65;77.71;101261.22;5019121;28;20191;-73
2020/12/17 01:33:40;;;;;;;37.73;26.07;;;;;;;8.27;78.35;101264.53;5019085;28;20167;-73
2020/12/17 01:36:08;;;;;;;38.00;25.70;;;;;;;8.63;77.65;101268.09;5018953;28;20432;-73
2020/12/17 01:38:34;;;;;;;40.67;28.20;;;;;;;8.67;77.57;101262.13;5018659;28;20397;-73
2020/12/17 01:41:00;;;;;;;41.20;29.07;;;;;;;8.20;78.72;101268.66;5019181;28;20439;-74
2020/12/17 01:43:25;;;;;;;40.27;28.57;;;;;;;8.49;77.89;101265.13;5018821;28;20214;-74
2020/12/17 01:45:51;;;;;;;40.40;27.90;;;;;;;8.37;78.27;101261.31;5018382;28;20190;-73
2020/12/17 01:48:17;;;;;;;39.97;28.03;;;;;;;8.33;78.60;101262.06;5019145;28;20171;-73
2020/12/17 01:50:44;;;;;;;37.50;27.20;;;;;;;8.09;79.71;101260.56;5018499;28;20417;-73
2020/12/17 01:53:10;;;;;;;42.53;28.60;;;;;;;8.38;77.87;101255.28;5018430;28;20187;-74
2020/12/17 01:55:35;;;;;;;39.30;28.57;;;;;;;8.34;78.66;101252.59;5019034;28;20659;-73
2020/12/17 01:58:03;;;;;;;39.13;29.10;;;;;;;8.45;77.67;101261.56;5018304;28;20258;-73
2020/12/17 02:00:33;;;;;;;40.90;27.27;;;;;;;7.71;79.67;101262.06;5018457;28;20214;-72
2020/12/17 02:02:58;;;;;;;45.73;29.50;;;;;;;7.95;79.33;101263.63;5018779;28;20728;-73
2020/12/17 02:05:24;;;;;;;39.53;27.10;;;;;;;8.06;79.34;101267.38;5018582;28;20432;-72
2020/12/17 02:07:49;;;;;;;43.30;28.70;;;;;;;8.23;78.32;101260.09;5018472;28;20228;-72
2020/12/17 02:10:14;;;;;;;40.70;27.13;;;;;;;8.23;78.09;101257.50;5018681;28;20513;-73
2020/12/17 02:12:47;;;;;;;45.03;29.30;;;;;;;8.06;78.53;101254.41;5017317;28;20175;-73
2020/12/17 02:15:14;;;;;;;40.47;27.40;;;;;;;7.93;78.85;101251.47;5018349;28;20278;-74
2020/12/17 02:17:40;;;;;;;38.73;27.67;;;;;;;8.18;78.65;101251.28;5018650;28;20413;-74
2020/12/17 02:20:07;;;;;;;40.67;27.30;;;;;;;8.16;78.16;101255.53;5017954;28;20499;-73
2020/12/17 02:22:33;;;;;;;39.03;27.63;;;;;;;7.90;79.03;101250.50;5018098;28;20418;-73
2020/12/17 02:24:59;;;;;;;38.50;26.70;;;;;;;8.09;79.18;101247.59;5017567;28;20488;-73
2020/12/17 02:27:24;;;;;;;42.00;27.90;;;;;;;7.80;79.91;101248.47;5017676;28;20396;-74
2020/12/17 02:29:49;;;;;;;37.90;27.30;;;;;;;8.25;78.75;101243.72;5017278;28;20190;-73
2020/12/17 02:32:15;;;;;;;38.47;25.67;;;;;;;8.49;77.74;101236.56;5017909;28;20166;-73
2020/12/17 02:34:40;;;;;;;36.63;26.33;;;;;;;8.47;77.38;101238.22;5018184;28;20162;-73
2020/12/17 02:37:08;;;;;;;39.27;28.77;;;;;;;8.13;78.04;101234.69;5017693;28;21337;-74
2020/12/17 02:39:33;;;;;;;35.53;25.90;;;;;;;8.39;77.53;101241.47;5017609;28;20174;-73
2020/12/17 02:41:59;;;;;;;39.30;28.10;;;;;;;8.33;77.21;101241.28;5017644;28;20407;-74
2020/12/17 02:44:24;;;;;;;36.80;26.23;;;;;;;8.03;78.53;101247.41;5017872;28;20214;-73
2020/12/17 02:46:49;;;;;;;38.50;26.60;;;;;;;8.15;78.09;101248.59;5017190;28;20182;-73
2020/12/17 02:49:15;;;;;;;40.83;27.70;;;;;;;8.25;77.46;101248.00;5017318;28;20183;-73
2020/12/17 02:51:40;;;;;;;34.77;23.90;;;;;;;7.97;78.58;101246.34;5017487;28;20178;-73
2020/12/17 02:54:05;;;;;;;38.03;26.23;;;;;;;8.01;79.13;101246.50;5017416;28;20206;-72
2020/12/17 02:56:31;;;;;;;36.10;26.00;;;;;;;7.98;78.25;101245.53;5017465;28;20551;-73
2020/12/17 02:58:56;;;;;;;40.63;26.60;;;;;;;8.08;78.55;101248.44;5017720;28;20175;-73
2020/12/17 03:01:21;;;;;;;35.03;26.33;;;;;;;8.28;78.07;101245.50;5017391;28;20293;-73
2020/12/17 03:03:46;;;;;;;38.20;26.70;;;;;;;8.48;77.45;101234.78;5016784;28;20327;-73
2020/12/17 03:06:12;;;;;;;40.10;25.43;;;;;;;8.30;77.43;101238.63;5017417;28;20185;-72
2020/12/17 03:08:37;;;;;;;37.50;25.30;;;;;;;8.53;76.84;101235.78;5017081;28;20174;-72
2020/12/17 03:11:02;;;;;;;32.93;23.90;;;;;;;8.27;77.30;101242.00;5017139;28;20261;-73
2020/12/17 03:13:28;;;;;;;31.50;24.80;;;;;;;8.49;76.47;101231.34;5017479;28;20417;-74
2020/12/17 03:15:53;;;;;;;32.50;23.87;;;;;;;8.13;77.75;101238.16;5017088;28;20214;-73
2020/12/17 03:18:18;;;;;;;35.33;24.27;;;;;;;8.38;77.63;101239.69;5017365;28;20171;-73
2020/12/17 03:20:44;;;;;;;33.93;24.03;;;;;;;8.26;77.15;101237.66;5018233;28;20189;-73
2020/12/17 03:23:09;;;;;;;33.00;24.30;;;;;;;8.35;77.46;101234.44;5017973;28;20213;-73
2020/12/17 03:25:35;;;;;;;32.13;23.13;;;;;;;8.22;77.51;101232.34;5017880;28;20588;-73
2020/12/17 03:28:00;;;;;;;32.63;25.50;;;;;;;8.48;76.81;101230.47;5018430;28;20183;-73
2020/12/17 03:30:25;;;;;;;31.97;23.17;;;;;;;8.20;77.35;101231.41;5017879;28;20257;-74
2020/12/17 03:32:50;;;;;;;37.30;25.23;;;;;;;8.35;77.09;101220.53;5018010;28;20277;-72
2020/12/17 03:35:16;;;;;;;33.50;24.77;;;;;;;8.26;77.32;101224.66;5018220;28;20236;-73
2020/12/17 03:37:41;;;;;;;32.70;23.77;;;;;;;8.36;77.10;101219.72;5017927;28;20175;-72
2020/12/17 03:40:07;;;;;;;32.13;23.33;;;;;;;8.20;77.30;101224.50;5017448;28;20179;-73
2020/12/17 03:42:32;;;;;;;29.43;23.03;;;;;;;8.18;77.97;101220.13;5018152;28;20186;-73
2020/12/17 03:44:58;;;;;;;32.13;23.70;;;;;;;8.04;78.17;101217.16;5017616;28;20595;-74
2020/12/17 03:47:23;;;;;;;31.50;24.30;;;;;;;8.11;77.37;101218.19;5017633;28;20528;-73
2020/12/17 03:49:48;;;;;;;35.93;24.23;;;;;;;7.89;78.40;101212.41;5017835;28;20190;-73
2020/12/17 03:52:13;;;;;;;30.43;23.67;;;;;;;7.71;79.33;101208.44;5017673;28;20198;-73
2020/12/17 03:54:39;;;;;;;31.93;23.67;;;;;;;7.95;78.80;101217.75;5017644;28;20229;-73
2020/12/17 03:57:04;;;;;;;34.47;24.60;;;;;;;8.03;78.34;101216.25;5017979;28;20171;-73
2020/12/17 03:59:29;;;;;;;34.17;25.50;;;;;;;7.90;78.56;101219.34;5017465;28;20179;-74
2020/12/17 04:01:55;;;;;;;33.80;23.77;;;;;;;7.77;78.69;101212.94;5017704;28;20210;-73
2020/12/17 04:04:20;;;;;;;34.10;23.20;;;;;;;7.92;78.55;101212.50;5017701;28;20241;-73
2020/12/17 04:06:45;;;;;;;29.40;23.17;;;;;;;7.82;78.56;101218.25;5017500;28;20182;-73
2020/12/17 04:09:11;;;;;;;31.67;22.13;;;;;;;7.91;78.73;101210.72;5017373;28;20484;-74
2020/12/17 04:11:36;;;;;;;31.57;22.53;;;;;;;7.96;77.92;101206.53;5017778;28;20171;-74
2020/12/17 04:14:01;;;;;;;32.30;24.10;;;;;;;7.88;78.96;101208.03;5017222;28;20183;-74
2020/12/17 04:16:26;;;;;;;34.33;23.67;;;;;;;7.91;78.24;101211.63;5017286;28;20179;-73
2020/12/17 04:18:52;;;;;;;44.57;24.90;;;;;;;7.93;78.20;101209.06;5017633;28;20499;-73
2020/12/17 04:21:18;;;;;;;31.73;24.63;;;;;;;7.98;78.20;101211.78;5017268;28;20274;-74
2020/12/17 04:23:43;;;;;;;33.00;23.70;;;;;;;7.93;78.03;101216.84;5017055;28;20542;-74
2020/12/17 04:26:13;;;;;;;32.53;22.53;;;;;;;7.84;78.61;101214.84;5017593;28;20384;-73
2020/12/17 04:28:38;;;;;;;29.43;23.37;;;;;;;7.89;78.36;101220.19;5017037;28;20174;-73
2020/12/17 04:31:03;;;;;;;34.00;23.97;;;;;;;8.02;78.34;101209.28;5017211;28;20408;-73
2020/12/17 04:33:28;;;;;;;35.03;24.73;;;;;;;7.86;78.87;101210.59;5017454;28;20163;-73
2020/12/17 04:35:54;;;;;;;30.97;23.00;;;;;;;7.53;79.85;101211.38;5017097;28;20229;-73
2020/12/17 04:38:20;;;;;;;35.93;25.50;;;;;;;7.80;78.55;101202.63;5017089;28;20528;-73
2020/12/17 04:40:45;;;;;;;30.00;23.30;;;;;;;8.08;77.89;101209.47;5017400;28;20170;-73
2020/12/17 04:43:10;;;;;;;32.27;23.40;;;;;;;7.89;78.29;101208.09;5016956;28;20221;-73
2020/12/17 04:45:38;;;;;;;33.23;24.20;;;;;;;8.07;78.06;101199.91;5016334;28;20175;-74
2020/12/17 04:48:05;;;;;;;30.90;24.40;;;;;;;7.99;77.91;101205.75;5017669;28;20548;-72
2020/12/17 04:50:31;;;;;;;32.07;24.30;;;;;;;8.11;78.08;101206.09;5016776;28;20404;-72
2020/12/17 04:52:57;;;;;;;30.23;22.40;;;;;;;8.07;78.08;101197.31;5020126;28;20643;-73
2020/12/17 04:55:25;;;;;;;34.80;24.40;;;;;;;7.91;78.15;101192.53;5020317;28;20421;-73
2020/12/17 04:57:51;;;;;;;32.63;24.43;;;;;;;7.90;78.81;101181.28;5020786;28;20257;-73
2020/12/17 05:00:16;;;;;;;30.70;23.00;;;;;;;7.91;78.77;101172.69;5020560;28;20556;-72
2020/12/17 05:02:46;;;;;;;34.70;23.57;;;;;;;7.88;78.64;101166.50;5020776;28;20449;-72
2020/12/17 05:05:11;;;;;;;28.57;22.07;;;;;;;8.01;78.33;101159.91;5020562;28;20556;-73
2020/12/17 05:07:37;;;;;;;32.03;22.97;;;;;;;7.93;78.90;101158.00;5020551;28;20413;-73
2020/12/17 05:10:03;;;;;;;33.97;24.20;;;;;;;7.87;78.96;101162.16;5020937;28;20181;-73
2020/12/17 05:12:30;;;;;;;34.07;25.10;;;;;;;7.86;78.35;101169.06;5020576;28;20163;-73
2020/12/17 05:14:56;;;;;;;32.47;24.37;;;;;;;7.76;78.51;101185.22;5020495;28;20480;-73
2020/12/17 05:17:21;;;;;;;31.20;24.47;;;;;;;7.80;78.96;101181.00;5020753;28;20726;-73
2020/12/17 05:19:48;;;;;;;30.93;22.60;;;;;;;7.57;79.13;101179.47;5020219;28;20167;-73
2020/12/17 05:22:14;;;;;;;34.13;24.03;;;;;;;7.86;78.54;101187.25;5019396;28;20174;-72
2020/12/17 05:24:45;;;;;;;35.87;23.20;;;;;;;7.83;78.14;101181.94;5020130;28;20757;-73
2020/12/17 05:27:10;;;;;;;30.90;23.00;;;;;;;7.66;78.79;101180.59;5020250;28;20385;-73
2020/12/17 05:29:40;;;;;;;35.30;24.10;;;;;;;7.70;78.97;101175.53;5020279;28;20724;-73
2020/12/17 05:32:10;;;;;;;36.67;24.57;;;;;;;7.93;77.84;101181.38;5020022;28;20567;-72
2020/12/17 05:34:36;;;;;;;31.43;23.03;;;;;;;7.94;77.57;101187.44;5020073;28;20452;-73
2020/12/17 05:37:05;;;;;;;33.43;23.43;;;;;;;7.87;77.91;101188.97;5019970;28;20440;-73
2020/12/17 05:39:30;;;;;;;32.77;23.90;;;;;;;7.87;77.88;101190.69;5019916;28;20433;-73
2020/12/17 05:41:56;;;;;;;32.00;22.83;;;;;;;7.98;77.45;101197.06;5020195;28;20410;-75
2020/12/17 05:44:26;;;;;;;32.07;22.50;;;;;;;8.01;77.69;101199.75;5019602;28;20254;-72
2020/12/17 05:46:52;;;;;;;33.03;24.43;;;;;;;7.77;79.09;101202.56;5019792;28;20201;-73
2020/12/17 05:49:25;;;;;;;28.80;22.70;;;;;;;7.76;78.49;101209.44;5019267;28;20414;-72
2020/12/17 05:52:08;;;;;;;31.70;22.13;;;;;;;7.90;78.04;101201.16;5019783;28;20194;-73
2020/12/17 05:54:33;;;;;;;30.47;22.17;;;;;;;7.66;78.35;101204.84;5019889;28;20667;-73
2020/12/17 05:57:09;;;;;;;26.53;20.43;;;;;;;7.58;78.63;101216.72;5018877;28;20417;-73
2020/12/17 05:59:35;;;;;;;31.13;23.17;;;;;;;7.74;78.71;101202.47;5019371;28;20167;-73
2020/12/17 06:02:24;;;;;;;30.63;22.90;;;;;;;7.83;78.13;101201.84;5019270;28;20517;-72
2020/12/17 06:05:10;;;;;;;32.30;20.80;;;;;;;7.82;78.08;101193.19;5019410;28;20527;-73
2020/12/17 06:07:45;;;;;;;30.87;22.20;;;;;;;7.78;78.14;101203.41;5019362;28;20418;-73
2020/12/17 06:10:16;;;;;;;31.87;22.60;;;;;;;7.70;78.37;101200.63;5019630;28;21141;-73
2020/12/17 06:12:44;;;;;;;32.50;22.40;;;;;;;7.88;77.90;101189.88;5019304;28;20400;-72
2020/12/17 06:15:09;;;;;;;30.73;21.80;;;;;;;7.68;79.03;101190.16;5019251;28;20472;-73
2020/12/17 06:17:38;;;;;;;31.40;23.40;;;;;;;7.81;78.23;101186.22;5019608;28;20804;-73
2020/12/17 06:20:06;;;;;;;30.83;23.27;;;;;;;7.74;78.60;101186.91;5019028;28;20174;-73
2020/12/17 06:22:32;;;;;;;28.43;22.20;;;;;;;7.79;78.04;101176.63;5019112;28;20831;-72
2020/12/17 06:24:58;;;;;;;29.80;21.83;;;;;;;7.89;77.78;101176.06;5019074;28;20474;-73
2020/12/17 06:27:28;;;;;;;29.90;22.30;;;;;;;7.77;78.35;101174.00;5018967;28;20701;-72
2020/12/17 06:30:05;;;;;;;26.30;21.80;;;;;;;7.73;78.31;101170.44;5018963;28;20452;-72
2020/12/17 06:32:33;;;;;;;29.97;21.67;;;;;;;7.69;78.65;101176.38;5002544;28;20478;-72
2020/12/17 06:34:59;;;;;;;30.13;23.10;;;;;;;7.86;78.17;101173.38;5019023;28;20740;-72
2020/12/17 06:37:25;;;;;;;33.33;21.87;;;;;;;8.01;77.90;101170.31;5018050;28;20424;-73
2020/12/17 06:39:51;;;;;;;26.67;21.20;;;;;;;8.09;76.89;101163.59;5018788;28;20500;-73
2020/12/17 06:42:38;;;;;;;29.97;22.87;;;;;;;7.99;77.38;101157.28;5019144;28;20879;-73
2020/12/17 06:45:22;;;;;;;28.13;21.47;;;;;;;7.87;77.94;101164.75;5018535;28;20206;-73
2020/12/17 06:47:47;;;;;;;28.87;21.37;;;;;;;7.81;78.45;101149.88;5018799;28;20429;-73
2020/12/17 06:50:27;;;;;;;25.70;20.77;;;;;;;7.63;78.62;101158.06;5018393;28;20414;-74
2020/12/17 06:53:09;;;;;;;27.37;20.40;;;;;;;7.88;77.83;101153.53;5018568;28;20167;-72
2020/12/17 06:55:38;;;;;;;28.77;21.37;;;;;;;7.93;78.26;101133.78;5018693;28;20413;-72
2020/12/17 06:58:03;;;;;;;28.90;21.90;;;;;;;8.14;76.92;101132.56;5018598;28;20501;-72
2020/12/17 07:00:29;;;;;;;29.03;21.03;;;;;;;8.17;76.83;101140.44;5018681;28;20501;-73
2020/12/17 07:02:54;;;;;;;28.20;21.13;;;;;;;8.02;77.76;101120.13;5018249;28;20171;-73
2020/12/17 07:05:29;;;;;;;29.77;22.43;;;;;;;7.96;78.28;101110.47;5018676;28;20175;-72
2020/12/17 07:07:55;;;;;;;30.50;22.53;;;;;;;8.01;77.36;101103.69;5018530;28;20182;-75
2020/12/17 07:10:25;;;;;;;28.53;21.87;;;;;;;8.12;77.34;101096.19;5018071;28;20426;-75
2020/12/17 07:12:50;;;;;;;28.00;21.07;;;;;;;8.05;77.62;101115.91;5018374;28;20484;-73
2020/12/17 07:15:32;;;;;;;27.10;21.30;;;;;;;7.96;78.06;101109.63;5017758;28;20397;-73
2020/12/17 07:18:19;;;;;;;30.20;21.23;;;;;;;8.11;77.49;101110.00;5018027;28;20221;-74
2020/12/17 07:20:45;;;;;;;27.60;20.60;;;;;;;8.01;77.64;101129.66;5018053;28;20417;-73
2020/12/17 07:23:10;;;;;;;29.87;22.20;;;;;;;7.92;77.71;101139.78;5017918;28;20556;-73
2020/12/17 07:25:38;;;;;;;32.03;21.77;;;;;;;7.92;77.62;101139.78;5017925;28;20562;-72
2020/12/17 07:28:05;;;;;;;29.73;21.77;;;;;;;7.97;77.54;101120.03;5018344;28;20198;-73
2020/12/17 07:30:31;;;;;;;30.10;22.00;;;;;;;8.06;76.98;101147.94;5017513;28;20524;-72
2020/12/17 07:32:56;;;;;;;25.93;20.87;;;;;;;8.15;77.19;101157.72;5017742;28;20500;-72
2020/12/17 07:35:24;;;;;;;29.60;22.10;;;;;;;8.12;76.82;101186.16;5018125;28;20521;-72
2020/12/17 07:37:58;;;;;;;27.47;20.83;;;;;;;7.93;77.62;101173.59;5017745;28;20221;-73
2020/12/17 07:40:27;;;;;;;29.23;21.87;;;;;;;8.18;76.46;101168.16;5017399;28;20717;-73
2020/12/17 07:43:13;;;;;;;28.17;22.00;;;;;;;8.84;75.37;101151.66;5017386;28;20432;-73
2020/12/17 07:45:48;;;;;;;25.60;20.13;;;;;;;8.52;75.51;101164.72;5017408;28;20429;-73
2020/12/17 07:48:54;;;;;;;27.50;18.77;;;;;;;8.39;75.71;101166.13;5017566;28;20453;-74
2020/12/17 07:51:19;;;;;;;25.37;19.50;;;;;;;8.40;76.10;101169.59;5016785;28;20487;-73
2020/12/17 07:53:46;;;;;;;27.60;21.27;;;;;;;8.32;76.78;101139.94;5017335;28;20512;-73
2020/12/17 07:56:12;;;;;;;25.20;20.93;;;;;;;8.07;77.47;101158.38;5016562;28;20190;-73
2020/12/17 07:58:37;;;;;;;25.50;19.97;;;;;;;8.12;77.35;101165.41;5017509;28;20414;-72
2020/12/17 08:01:03;;;;;;;22.27;18.67;;;;;;;8.27;76.88;101166.69;5016387;28;20167;-73
2020/12/17 08:03:29;;;;;;;26.00;20.27;;;;;;;8.57;76.00;101168.34;5017126;28;20572;-73
2020/12/17 08:06:08;;;;;;;22.53;18.90;;;;;;;8.46;76.23;101171.50;5017637;28;20171;-72
2020/12/17 08:08:34;;;;;;;22.77;19.23;;;;;;;8.39;76.88;101168.72;5016394;28;20178;-72
2020/12/17 08:11:03;;;;;;;21.23;18.33;;;;;;;8.78;75.63;101159.28;5017179;28;20682;-73
2020/12/17 08:13:28;;;;;;;23.77;18.27;;;;;;;8.65;75.23;101165.94;5017277;28;20246;-74
2020/12/17 08:16:01;;;;;;;20.07;17.17;;;;;;;8.61;75.77;101161.50;5017302;28;20805;-72
2020/12/17 08:18:30;;;;;;;20.57;17.97;;;;;;;8.82;75.21;101163.75;5017237;28;20257;-72
2020/12/17 08:21:22;;;;;;;24.57;18.70;;;;;;;8.67;75.68;101184.16;5017106;28;20418;-73
2020/12/17 08:23:47;;;;;;;21.20;17.87;;;;;;;9.15;73.84;101167.09;5016797;28;20456;-73
2020/12/17 08:26:24;;;;;;;20.17;17.07;;;;;;;8.89;74.69;101172.53;5019291;28;20882;-73
2020/12/17 08:28:50;;;;;;;21.70;18.80;;;;;;;9.00;74.57;101165.88;5021084;28;20261;-75
2020/12/17 08:31:18;;;;;;;24.40;18.37;;;;;;;8.99;74.54;101171.06;5021176;28;20428;-74
2020/12/17 08:33:45;;;;;;;22.90;18.50;;;;;;;9.25;73.21;101161.22;5021110;28;20388;-73
2020/12/17 08:36:13;;;;;;;21.77;16.10;;;;;;;8.82;74.80;101158.56;5021160;28;20480;-74
2020/12/17 08:38:39;;;;;;;20.97;17.27;;;;;;;8.95;74.67;101166.63;5021322;28;20385;-74
2020/12/17 08:41:06;;;;;;;19.93;17.83;;;;;;;8.96;75.06;101158.84;5020851;28;20425;-73
2020/12/17 08:43:43;;;;;;;20.10;16.50;;;;;;;8.64;75.59;101169.38;5020988;28;20274;-73
2020/12/17 08:46:17;;;;;;;17.43;15.53;;;;;;;9.09;74.92;101168.69;5020915;28;20391;-73
2020/12/17 08:48:44;;;;;;;20.93;17.00;;;;;;;8.74;74.61;101176.56;5020725;28;20439;-72
2020/12/17 08:51:11;;;;;;;19.57;16.73;;;;;;;9.27;73.95;101151.75;5020188;28;20450;-74
2020/12/17 08:53:40;;;;;;;28.03;16.57;;;;;;;9.09;74.25;101160.91;5020380;28;20392;-74
2020/12/17 08:56:12;;;;;;;18.13;16.20;;;;;;;9.37;73.46;101161.47;5021125;28;20400;-74
2020/12/17 08:58:43;;;;;;;19.30;16.60;;;;;;;9.40;72.94;101156.38;5020536;28;20425;-74
2020/12/17 09:01:19;;;;;;;19.97;17.50;;;;;;;9.03;74.30;101172.88;5020292;28;20413;-73
2020/12/17 09:03:46;;;;;;;22.03;16.03;;;;;;;9.16;74.31;101161.00;5020466;28;20465;-73
2020/12/17 09:06:12;;;;;;;24.13;16.73;;;;;;;9.35;73.06;101165.78;5020300;28;20384;-73
2020/12/17 09:08:37;;;;;;;18.10;15.50;;;;;;;9.38;73.32;101168.44;5020169;28;20399;-72
2020/12/17 09:11:03;;;;;;;19.30;16.53;;;;;;;9.48;73.18;101158.25;5020409;28;20185;-72
2020/12/17 09:13:28;;;;;;;17.00;15.17;;;;;;;9.56;72.69;101160.13;5020734;28;20191;-74
2020/12/17 09:15:58;;;;;;;17.07;15.27;;;;;;;9.57;72.49;101161.03;5020408;28;20218;-74
2020/12/17 09:18:25;;;;;;;19.20;15.00;;;;;;;9.37;73.91;101161.47;5020263;28;20167;-74
2020/12/17 09:21:13;;;;;;;16.00;14.30;;;;;;;9.50;73.67;101169.53;5019891;28;20385;-72
2020/12/17 09:23:39;;;;;;;18.53;15.60;;;;;;;9.81;72.34;101170.19;5019900;28;20436;-73
2020/12/17 09:26:14;;;;;;;17.20;14.87;;;;;;;9.63;72.91;101158.53;5020154;28;20705;-72
2020/12/17 09:28:50;;;;;;;16.70;14.90;;;;;;;9.93;72.41;101158.28;5019984;28;20166;-72
2020/12/17 09:31:26;;;;;;;18.43;15.67;;;;;;;9.74;73.67;101162.25;5020189;28;20420;-73
2020/12/17 09:34:02;;;;;;;16.90;14.87;;;;;;;9.66;73.08;101169.03;5019419;28;20384;-73
2020/12/17 09:36:27;;;;;;;19.00;16.50;;;;;;;9.89;73.33;101174.69;5020206;28;20384;-73
2020/12/17 09:39:16;;;;;;;17.50;14.73;;;;;;;9.69;74.03;101169.09;5019229;28;20467;-73
2020/12/17 09:41:55;;;;;;;18.30;16.37;;;;;;;9.82;73.39;101170.19;5020195;28;20183;-74
2020/12/17 09:44:32;;;;;;;17.60;15.30;;;;;;;9.65;74.11;101169.88;5019889;28;20820;-74
2020/12/17 09:46:57;;;;;;;18.03;15.33;;;;;;;9.96;73.05;101180.91;5019911;28;20477;-73
2020/12/17 09:49:29;;;;;;;21.43;15.67;;;;;;;9.71;74.48;101172.59;5019712;28;20418;-74
2020/12/17 09:51:58;;;;;;;19.10;15.80;;;;;;;9.71;74.25;101170.00;5019825;28;20167;-74
2020/12/17 09:54:24;;;;;;;17.10;15.10;;;;;;;9.89;73.60;101179.00;5019723;28;20411;-74
2020/12/17 09:57:18;;;;;;;20.20;17.23;;;;;;;9.73;74.74;101178.72;5019741;28;20384;-74
2020/12/17 09:59:44;;;;;;;17.13;15.33;;;;;;;9.85;74.21;101182.41;5018969;28;20286;-74
2020/12/17 10:02:11;;;;;;;18.53;16.10;;;;;;;9.77;74.27;101180.53;5019597;28;20468;-74
2020/12/17 10:04:38;;;;;;;17.70;14.90;;;;;;;9.95;74.24;101184.34;5019370;28;20199;-75
2020/12/17 10:07:04;;;;;;;17.80;15.60;;;;;;;9.92;74.61;101184.31;5018658;28;20643;-74
2020/12/17 10:09:29;;;;;;;18.77;16.50;;;;;;;9.87;74.28;101188.53;5019702;28;20425;-75
2020/12/17 10:11:55;;;;;;;16.60;14.80;;;;;;;9.55;75.98;101188.75;5019285;28;20422;-74
2020/12/17 10:14:21;;;;;;;19.00;15.30;;;;;;;9.81;75.53;101185.78;5019411;28;20560;-75
2020/12/17 10:16:47;;;;;;;19.63;15.70;;;;;;;10.01;74.77;101204.44;5019607;28;20402;-76
2020/12/17 10:19:13;;;;;;;17.77;15.60;;;;;;;9.68;75.98;101188.16;5019096;28;20190;-75
2020/12/17 10:21:38;;;;;;;27.23;16.13;;;;;;;9.82;75.32;101197.97;5019097;28;20422;-73
2020/12/17 10:24:04;;;;;;;21.13;16.77;;;;;;;9.76;75.64;101198.75;5019145;28;20444;-77
2020/12/17 10:26:30;;;;;;;19.07;16.67;;;;;;;9.92;75.88;101195.59;5019266;28;20249;-74
2020/12/17 10:28:55;;;;;;;19.27;16.27;;;;;;;9.82;76.21;101197.97;5018939;28;20438;-76
2020/12/17 10:31:21;;;;;;;20.67;16.07;;;;;;;10.01;75.87;101191.41;5019049;28;20175;-72
2020/12/17 10:33:46;;;;;;;20.20;17.23;;;;;;;9.77;76.65;101198.75;5018917;28;20460;-73
2020/12/17 10:36:12;;;;;;;19.73;16.50;;;;;;;9.80;76.61;101203.16;5019159;28;20444;-71
2020/12/17 10:38:37;;;;;;;18.57;15.60;;;;;;;9.86;76.55;101205.88;5038359;28;20185;-73
2020/12/17 10:41:02;;;;;;;20.77;16.60;;;;;;;9.86;76.76;101194.59;5038565;28;20185;-76
2020/12/17 10:43:28;;;;;;;17.70;15.83;;;;;;;9.91;76.57;101192.97;5038775;28;20198;-75
2020/12/17 10:45:53;;;;;;;18.10;16.20;;;;;;;9.71;77.48;101196.03;5037777;28;20177;-74
2020/12/17 10:48:18;;;;;;;20.60;15.70;;;;;;;9.66;78.14;101197.69;5038365;28;20173;-75
2020/12/17 10:50:43;;;;;;;19.97;16.90;;;;;;;9.97;77.12;101195.66;5037755;28;20166;-75
2020/12/17 10:53:09;;;;;;;18.97;14.93;;;;;;;9.72;78.14;101200.38;5038140;28;20170;-74
2020/12/17 10:55:34;;;;;;;18.53;16.50;;;;;;;9.99;77.77;101193.13;5037949;28;20189;-72
2020/12/17 10:57:59;;;;;;;18.50;15.70;;;;;;;10.01;76.94;101201.81;5028116;28;20178;-71
2020/12/17 11:00:25;;;;;;;18.30;16.20;;;;;;;9.92;77.75;101205.13;5031923;28;20236;-75
2020/12/17 11:02:50;;;;;;;17.63;15.70;;;;;;;9.95;76.88;101195.63;5034810;28;20189;-74
2020/12/17 11:05:15;;;;;;;17.90;15.47;;;;;;;10.12;76.31;101192.50;5036317;28;20190;-73
2020/12/17 11:07:41;;;;;;;16.73;14.93;;;;;;;10.03;76.91;101198.41;5035577;28;20279;-76
2020/12/17 11:10:07;;;;;;;17.93;16.10;;;;;;;9.90;77.29;101206.81;5036103;28;20178;-74
2020/12/17 11:12:32;;;;;;;18.77;16.67;;;;;;;10.10;77.00;101200.25;5034883;28;20201;-73
2020/12/17 11:14:57;;;;;;;19.97;16.10;;;;;;;10.14;77.34;101197.75;5036589;28;20452;-72
2020/12/17 11:17:23;;;;;;;20.80;17.20;;;;;;;10.15;77.16;101196.88;5036517;28;20200;-72
2020/12/17 11:19:48;;;;;;;19.67;17.00;;;;;;;10.11;77.16;101206.38;5036616;28;20170;-73